Terminal Aerodrome Forecast
Issued by NWS

Home | Current Version | Previous Version | Text Only | Print | Product List | Glossary On
Versions: 1 2 3 4 5 6 7 8 9 10 11 12 13 14 15 16 17 18 19 20 21 22 23 24 25 26 27 28 29
565
FTUS43 KUNR 202321
TAFGCC
TAF
KGCC 202321Z 2100/2124 03012KT P6SM OVC060
     FM210300 04010KT 5SM -RASN OVC025
     FM210400 05009KT 4SM -SNRA OVC015
     FM210700 08009KT 4SM -SN BR OVC010
     FM211000 13011KT P6SM BKN008
     FM211800 15016G24KT P6SM BKN035=

USA.gov is the U.S. government's official web portal to all federal, state and local government web resources and services.